sensor_id;sensor_type;location;lat;lon;timestamp;temperature;humidity
76967;DHT22;65904;52.278;20.972;2023-08-12T00:00:03;23.20;97.70
76967;DHT22;65904;52.278;20.972;2023-08-12T00:03:15;23.20;97.60
76967;DHT22;65904;52.278;20.972;2023-08-12T00:06:01;23.10;97.70
76967;DHT22;65904;52.278;20.972;2023-08-12T00:08:49;23.10;97.70
76967;DHT22;65904;52.278;20.972;2023-08-12T00:11:37;23.10;97.80
76967;DHT22;65904;52.278;20.972;2023-08-12T00:14:23;23.10;97.70
76967;DHT22;65904;52.278;20.972;2023-08-12T00:17:09;23.10;97.90
76967;DHT22;65904;52.278;20.972;2023-08-12T00:19:55;23.10;97.90
76967;DHT22;65904;52.278;20.972;2023-08-12T00:22:41;23.10;97.90
76967;DHT22;65904;52.278;20.972;2023-08-12T00:25:27;23.10;98.00
76967;DHT22;65904;52.278;20.972;2023-08-12T00:28:14;23.10;98.00
76967;DHT22;65904;52.278;20.972;2023-08-12T00:31:00;23.00;98.00
76967;DHT22;65904;52.278;20.972;2023-08-12T00:33:46;23.00;98.00
76967;DHT22;65904;52.278;20.972;2023-08-12T00:36:33;23.00;98.10
76967;DHT22;65904;52.278;20.972;2023-08-12T00:39:19;23.00;98.10
76967;DHT22;65904;52.278;20.972;2023-08-12T00:42:06;23.00;98.00
76967;DHT22;65904;52.278;20.972;2023-08-12T00:44:54;23.00;98.00
76967;DHT22;65904;52.278;20.972;2023-08-12T00:47:40;23.00;98.10
76967;DHT22;65904;52.278;20.972;2023-08-12T00:50:27;23.00;98.20
76967;DHT22;65904;52.278;20.972;2023-08-12T00:53:15;23.00;98.10
76967;DHT22;65904;52.278;20.972;2023-08-12T00:56:01;23.00;98.20
76967;DHT22;65904;52.278;20.972;2023-08-12T00:58:47;23.00;98.10
76967;DHT22;65904;52.278;20.972;2023-08-12T01:01:35;23.00;98.20
76967;DHT22;65904;52.278;20.972;2023-08-12T01:04:21;23.00;98.20
76967;DHT22;65904;52.278;20.972;2023-08-12T01:07:09;23.00;98.10
76967;DHT22;65904;52.278;20.972;2023-08-12T01:09:56;23.00;98.10
76967;DHT22;65904;52.278;20.972;2023-08-12T01:12:44;23.00;98.00
76967;DHT22;65904;52.278;20.972;2023-08-12T01:15:33;23.00;98.10
76967;DHT22;65904;52.278;20.972;2023-08-12T01:18:20;23.00;98.10
76967;DHT22;65904;52.278;20.972;2023-08-12T01:21:07;23.00;98.10
76967;DHT22;65904;52.278;20.972;2023-08-12T01:23:56;22.90;98.00
76967;DHT22;65904;52.278;20.972;2023-08-12T01:26:42;22.90;98.00
76967;DHT22;65904;52.278;20.972;2023-08-12T01:29:28;23.00;98.00
76967;DHT22;65904;52.278;20.972;2023-08-12T01:32:17;22.90;98.00
76967;DHT22;65904;52.278;20.972;2023-08-12T01:35:09;23.00;98.10
76967;DHT22;65904;52.278;20.972;2023-08-12T01:37:58;22.90;98.00
76967;DHT22;65904;52.278;20.972;2023-08-12T01:40:46;22.90;97.90
76967;DHT22;65904;52.278;20.972;2023-08-12T01:43:33;22.90;97.90
76967;DHT22;65904;52.278;20.972;2023-08-12T01:46:18;22.90;97.90
76967;DHT22;65904;52.278;20.972;2023-08-12T01:49:05;22.90;97.90
76967;DHT22;65904;52.278;20.972;2023-08-12T01:51:50;22.90;97.90
76967;DHT22;65904;52.278;20.972;2023-08-12T01:54:36;22.90;97.80
76967;DHT22;65904;52.278;20.972;2023-08-12T01:57:26;22.90;97.90
76967;DHT22;65904;52.278;20.972;2023-08-12T02:00:12;22.90;97.80
76967;DHT22;65904;52.278;20.972;2023-08-12T02:03:01;22.80;97.80
76967;DHT22;65904;52.278;20.972;2023-08-12T02:05:47;22.80;97.90
76967;DHT22;65904;52.278;20.972;2023-08-12T02:08:33;22.90;98.00
76967;DHT22;65904;52.278;20.972;2023-08-12T02:11:20;22.80;98.00
76967;DHT22;65904;52.278;20.972;2023-08-12T02:14:07;22.80;98.00
76967;DHT22;65904;52.278;20.972;2023-08-12T02:16:53;22.80;98.00
76967;DHT22;65904;52.278;20.972;2023-08-12T02:19:39;22.90;98.10
76967;DHT22;65904;52.278;20.972;2023-08-12T02:22:25;22.80;98.00
76967;DHT22;65904;52.278;20.972;2023-08-12T02:25:11;22.80;98.00
76967;DHT22;65904;52.278;20.972;2023-08-12T02:27:57;22.80;97.90
76967;DHT22;65904;52.278;20.972;2023-08-12T02:30:45;22.80;97.80
76967;DHT22;65904;52.278;20.972;2023-08-12T02:33:31;22.80;97.80
76967;DHT22;65904;52.278;20.972;2023-08-12T02:36:16;22.80;97.80
76967;DHT22;65904;52.278;20.972;2023-08-12T02:39:03;22.80;97.80
76967;DHT22;65904;52.278;20.972;2023-08-12T02:41:49;22.80;97.80
76967;DHT22;65904;52.278;20.972;2023-08-12T02:44:35;22.80;97.90
76967;DHT22;65904;52.278;20.972;2023-08-12T02:47:22;22.80;97.90
76967;DHT22;65904;52.278;20.972;2023-08-12T02:50:09;22.70;97.80
76967;DHT22;65904;52.278;20.972;2023-08-12T02:52:54;22.70;97.80
76967;DHT22;65904;52.278;20.972;2023-08-12T02:55:41;22.70;97.90
76967;DHT22;65904;52.278;20.972;2023-08-12T02:58:27;22.70;97.90
76967;DHT22;65904;52.278;20.972;2023-08-12T03:01:13;22.70;97.80
76967;DHT22;65904;52.278;20.972;2023-08-12T03:04:00;22.70;97.90
76967;DHT22;65904;52.278;20.972;2023-08-12T03:06:46;22.70;97.80
76967;DHT22;65904;52.278;20.972;2023-08-12T03:09:32;22.70;97.80
76967;DHT22;65904;52.278;20.972;2023-08-12T03:12:18;22.70;97.80
76967;DHT22;65904;52.278;20.972;2023-08-12T03:15:05;22.70;97.80
76967;DHT22;65904;52.278;20.972;2023-08-12T03:17:51;22.70;97.80
76967;DHT22;65904;52.278;20.972;2023-08-12T03:20:40;22.70;97.80
76967;DHT22;65904;52.278;20.972;2023-08-12T03:23:26;22.70;97.80
76967;DHT22;65904;52.278;20.972;2023-08-12T03:26:13;22.60;97.80
76967;DHT22;65904;52.278;20.972;2023-08-12T03:29:00;22.60;97.70
76967;DHT22;65904;52.278;20.972;2023-08-12T03:31:46;22.70;97.80
76967;DHT22;65904;52.278;20.972;2023-08-12T03:34:33;22.70;97.80
76967;DHT22;65904;52.278;20.972;2023-08-12T03:37:22;22.70;97.80
76967;DHT22;65904;52.278;20.972;2023-08-12T03:40:11;22.70;97.80
76967;DHT22;65904;52.278;20.972;2023-08-12T03:42:57;22.60;97.70
76967;DHT22;65904;52.278;20.972;2023-08-12T03:45:44;22.70;97.80
76967;DHT22;65904;52.278;20.972;2023-08-12T03:48:33;22.70;98.00
76967;DHT22;65904;52.278;20.972;2023-08-12T03:51:19;22.70;98.30
76967;DHT22;65904;52.278;20.972;2023-08-12T03:54:06;22.60;97.90
76967;DHT22;65904;52.278;20.972;2023-08-12T03:56:53;22.70;97.90
76967;DHT22;65904;52.278;20.972;2023-08-12T03:59:40;22.70;97.90
76967;DHT22;65904;52.278;20.972;2023-08-12T04:02:26;22.70;97.80
76967;DHT22;65904;52.278;20.972;2023-08-12T04:05:12;22.70;97.70
76967;DHT22;65904;52.278;20.972;2023-08-12T04:07:58;22.70;97.70
76967;DHT22;65904;52.278;20.972;2023-08-12T04:10:46;22.70;97.70
76967;DHT22;65904;52.278;20.972;2023-08-12T04:13:32;22.70;97.70
76967;DHT22;65904;52.278;20.972;2023-08-12T04:16:18;22.70;97.70
76967;DHT22;65904;52.278;20.972;2023-08-12T04:19:04;22.70;97.60
76967;DHT22;65904;52.278;20.972;2023-08-12T04:21:51;22.80;97.70
76967;DHT22;65904;52.278;20.972;2023-08-12T04:24:37;22.80;97.60
76967;DHT22;65904;52.278;20.972;2023-08-12T04:27:25;22.80;97.50
76967;DHT22;65904;52.278;20.972;2023-08-12T04:30:11;22.80;97.50
76967;DHT22;65904;52.278;20.972;2023-08-12T04:32:58;22.80;97.50
76967;DHT22;65904;52.278;20.972;2023-08-12T04:35:47;22.80;97.50
76967;DHT22;65904;52.278;20.972;2023-08-12T04:38:35;22.90;97.70
76967;DHT22;65904;52.278;20.972;2023-08-12T04:41:24;22.90;97.90
76967;DHT22;65904;52.278;20.972;2023-08-12T04:44:13;22.50;94.10
76967;DHT22;65904;52.278;20.972;2023-08-12T04:46:59;20.60;98.40
76967;DHT22;65904;52.278;20.972;2023-08-12T04:49:46;21.00;99.90
76967;DHT22;65904;52.278;20.972;2023-08-12T04:52:32;21.60;99.50
76967;DHT22;65904;52.278;20.972;2023-08-12T04:55:18;21.90;99.00
76967;DHT22;65904;52.278;20.972;2023-08-12T04:58:05;22.30;98.80
76967;DHT22;65904;52.278;20.972;2023-08-12T05:00:53;22.50;98.50
76967;DHT22;65904;52.278;20.972;2023-08-12T05:03:40;22.60;98.20
76967;DHT22;65904;52.278;20.972;2023-08-12T05:06:27;22.80;98.20
76967;DHT22;65904;52.278;20.972;2023-08-12T05:09:14;22.90;98.10
76967;DHT22;65904;52.278;20.972;2023-08-12T05:12:00;23.00;98.00
76967;DHT22;65904;52.278;20.972;2023-08-12T05:14:46;23.00;97.80
76967;DHT22;65904;52.278;20.972;2023-08-12T05:17:34;23.10;97.90
76967;DHT22;65904;52.278;20.972;2023-08-12T05:20:20;23.10;97.90
76967;DHT22;65904;52.278;20.972;2023-08-12T05:23:06;23.20;97.80
76967;DHT22;65904;52.278;20.972;2023-08-12T05:25:53;22.40;96.30
76967;DHT22;65904;52.278;20.972;2023-08-12T05:28:39;21.50;99.80
76967;DHT22;65904;52.278;20.972;2023-08-12T05:31:25;21.90;99.50
76967;DHT22;65904;52.278;20.972;2023-08-12T05:34:12;22.30;99.20
76967;DHT22;65904;52.278;20.972;2023-08-12T05:36:58;22.50;98.90
76967;DHT22;65904;52.278;20.972;2023-08-12T05:39:44;22.70;98.90
76967;DHT22;65904;52.278;20.972;2023-08-12T05:42:30;22.90;98.80
76967;DHT22;65904;52.278;20.972;2023-08-12T05:45:16;23.00;98.60
76967;DHT22;65904;52.278;20.972;2023-08-12T05:48:03;23.10;98.50
76967;DHT22;65904;52.278;20.972;2023-08-12T05:50:50;23.20;98.50
76967;DHT22;65904;52.278;20.972;2023-08-12T05:53:37;23.30;98.40
76967;DHT22;65904;52.278;20.972;2023-08-12T05:56:23;23.30;98.70
76967;DHT22;65904;52.278;20.972;2023-08-12T05:59:09;23.30;98.30
76967;DHT22;65904;52.278;20.972;2023-08-12T06:01:54;23.40;98.40
76967;DHT22;65904;52.278;20.972;2023-08-12T06:04:41;23.40;98.30
76967;DHT22;65904;52.278;20.972;2023-08-12T06:07:28;23.50;98.50
76967;DHT22;65904;52.278;20.972;2023-08-12T06:10:14;23.50;98.20
76967;DHT22;65904;52.278;20.972;2023-08-12T06:13:00;23.60;98.30
76967;DHT22;65904;52.278;20.972;2023-08-12T06:15:46;23.60;98.20
76967;DHT22;65904;52.278;20.972;2023-08-12T06:18:32;23.60;98.00
76967;DHT22;65904;52.278;20.972;2023-08-12T06:21:19;23.60;98.40
76967;DHT22;65904;52.278;20.972;2023-08-12T06:24:06;23.60;96.90
76967;DHT22;65904;52.278;20.972;2023-08-12T06:26:52;22.60;97.20
76967;DHT22;65904;52.278;20.972;2023-08-12T06:29:38;22.60;99.70
76967;DHT22;65904;52.278;20.972;2023-08-12T06:32:25;23.00;99.30
76967;DHT22;65904;52.278;20.972;2023-08-12T06:35:10;23.20;99.20
76967;DHT22;65904;52.278;20.972;2023-08-12T06:37:56;23.40;98.90
76967;DHT22;65904;52.278;20.972;2023-08-12T06:40:44;23.50;98.80
76967;DHT22;65904;52.278;20.972;2023-08-12T06:43:31;23.60;98.70
76967;DHT22;65904;52.278;20.972;2023-08-12T06:46:16;23.60;98.50
76967;DHT22;65904;52.278;20.972;2023-08-12T06:49:02;23.70;98.80
76967;DHT22;65904;52.278;20.972;2023-08-12T06:51:48;23.80;98.50
76967;DHT22;65904;52.278;20.972;2023-08-12T06:54:34;23.80;98.40
76967;DHT22;65904;52.278;20.972;2023-08-12T06:57:21;23.90;98.40
76967;DHT22;65904;52.278;20.972;2023-08-12T07:00:08;23.90;98.40
76967;DHT22;65904;52.278;20.972;2023-08-12T07:02:54;24.00;98.40
76967;DHT22;65904;52.278;20.972;2023-08-12T07:05:40;24.00;98.60
76967;DHT22;65904;52.278;20.972;2023-08-12T07:08:25;24.00;98.30
76967;DHT22;65904;52.278;20.972;2023-08-12T07:11:12;24.00;98.60
76967;DHT22;65904;52.278;20.972;2023-08-12T07:14:00;23.70;95.50
76967;DHT22;65904;52.278;20.972;2023-08-12T07:16:46;23.30;94.80
76967;DHT22;65904;52.278;20.972;2023-08-12T07:19:32;23.00;95.40
76967;DHT22;65904;52.278;20.972;2023-08-12T07:22:18;23.00;95.00
76967;DHT22;65904;52.278;20.972;2023-08-12T07:25:05;22.90;94.90
76967;DHT22;65904;52.278;20.972;2023-08-12T07:27:51;23.00;95.30
76967;DHT22;65904;52.278;20.972;2023-08-12T07:30:38;23.00;94.60
76967;DHT22;65904;52.278;20.972;2023-08-12T07:33:24;23.10;93.10
76967;DHT22;65904;52.278;20.972;2023-08-12T07:36:10;23.00;91.80
76967;DHT22;65904;52.278;20.972;2023-08-12T07:38:56;23.00;89.80
76967;DHT22;65904;52.278;20.972;2023-08-12T07:41:42;23.00;90.40
76967;DHT22;65904;52.278;20.972;2023-08-12T07:44:28;22.90;91.00
76967;DHT22;65904;52.278;20.972;2023-08-12T07:47:15;23.00;90.50
76967;DHT22;65904;52.278;20.972;2023-08-12T07:50:01;23.00;90.00
76967;DHT22;65904;52.278;20.972;2023-08-12T07:52:48;23.20;93.20
76967;DHT22;65904;52.278;20.972;2023-08-12T07:55:34;23.40;92.60
76967;DHT22;65904;52.278;20.972;2023-08-12T07:58:20;23.50;92.20
76967;DHT22;65904;52.278;20.972;2023-08-12T08:01:06;23.60;91.90
76967;DHT22;65904;52.278;20.972;2023-08-12T08:03:54;23.70;92.10
76967;DHT22;65904;52.278;20.972;2023-08-12T08:06:40;23.80;92.90
76967;DHT22;65904;52.278;20.972;2023-08-12T08:09:26;23.80;94.30
76967;DHT22;65904;52.278;20.972;2023-08-12T08:12:12;24.00;93.10
76967;DHT22;65904;52.278;20.972;2023-08-12T08:14:59;24.00;93.00
76967;DHT22;65904;52.278;20.972;2023-08-12T08:17:45;24.00;92.10
76967;DHT22;65904;52.278;20.972;2023-08-12T08:20:32;24.00;94.70
76967;DHT22;65904;52.278;20.972;2023-08-12T08:23:18;24.10;95.20
76967;DHT22;65904;52.278;20.972;2023-08-12T08:26:04;24.20;95.80
76967;DHT22;65904;52.278;20.972;2023-08-12T08:28:50;24.20;95.10
76967;DHT22;65904;52.278;20.972;2023-08-12T08:31:36;24.30;95.30
76967;DHT22;65904;52.278;20.972;2023-08-12T08:34:23;24.30;95.20
76967;DHT22;65904;52.278;20.972;2023-08-12T08:37:10;24.20;95.10
76967;DHT22;65904;52.278;20.972;2023-08-12T08:39:56;24.30;95.20
76967;DHT22;65904;52.278;20.972;2023-08-12T08:42:42;24.30;95.20
76967;DHT22;65904;52.278;20.972;2023-08-12T08:45:28;24.30;95.10
76967;DHT22;65904;52.278;20.972;2023-08-12T08:48:16;24.40;95.00
76967;DHT22;65904;52.278;20.972;2023-08-12T08:51:02;24.40;94.90
76967;DHT22;65904;52.278;20.972;2023-08-12T08:53:50;24.40;95.10
76967;DHT22;65904;52.278;20.972;2023-08-12T08:56:39;24.40;95.40
76967;DHT22;65904;52.278;20.972;2023-08-12T08:59:25;24.40;94.70
76967;DHT22;65904;52.278;20.972;2023-08-12T09:02:12;24.40;94.80
76967;DHT22;65904;52.278;20.972;2023-08-12T09:04:59;24.40;94.60
76967;DHT22;65904;52.278;20.972;2023-08-12T09:07:45;24.40;94.50
76967;DHT22;65904;52.278;20.972;2023-08-12T09:10:32;24.40;94.40
76967;DHT22;65904;52.278;20.972;2023-08-12T09:13:18;24.40;94.30
76967;DHT22;65904;52.278;20.972;2023-08-12T09:16:05;24.40;94.30
76967;DHT22;65904;52.278;20.972;2023-08-12T09:18:54;24.40;94.30
76967;DHT22;65904;52.278;20.972;2023-08-12T09:21:42;24.40;94.20
76967;DHT22;65904;52.278;20.972;2023-08-12T09:24:28;24.40;94.20
76967;DHT22;65904;52.278;20.972;2023-08-12T09:27:18;24.40;94.10
76967;DHT22;65904;52.278;20.972;2023-08-12T09:30:04;24.40;94.00
76967;DHT22;65904;52.278;20.972;2023-08-12T09:32:57;24.40;94.00
76967;DHT22;65904;52.278;20.972;2023-08-12T09:35:44;24.40;94.00
76967;DHT22;65904;52.278;20.972;2023-08-12T09:38:30;24.40;93.80
76967;DHT22;65904;52.278;20.972;2023-08-12T09:41:16;24.40;93.70
76967;DHT22;65904;52.278;20.972;2023-08-12T09:44:04;24.40;93.70
76967;DHT22;65904;52.278;20.972;2023-08-12T09:46:56;24.40;93.60
76967;DHT22;65904;52.278;20.972;2023-08-12T09:49:42;24.50;93.50
76967;DHT22;65904;52.278;20.972;2023-08-12T09:52:28;24.50;93.50
76967;DHT22;65904;52.278;20.972;2023-08-12T09:55:14;24.50;93.50
76967;DHT22;65904;52.278;20.972;2023-08-12T09:58:01;24.50;93.50
76967;DHT22;65904;52.278;20.972;2023-08-12T10:00:49;24.50;93.40
76967;DHT22;65904;52.278;20.972;2023-08-12T10:03:36;24.50;93.40
76967;DHT22;65904;52.278;20.972;2023-08-12T10:06:21;24.50;93.40
76967;DHT22;65904;52.278;20.972;2023-08-12T10:09:08;24.50;93.40
76967;DHT22;65904;52.278;20.972;2023-08-12T10:11:55;24.50;93.50
76967;DHT22;65904;52.278;20.972;2023-08-12T10:14:42;24.50;93.50
76967;DHT22;65904;52.278;20.972;2023-08-12T10:17:29;24.50;93.50
76967;DHT22;65904;52.278;20.972;2023-08-12T10:20:20;24.60;93.60
76967;DHT22;65904;52.278;20.972;2023-08-12T10:23:06;24.50;93.70
76967;DHT22;65904;52.278;20.972;2023-08-12T10:25:53;24.60;93.80
76967;DHT22;65904;52.278;20.972;2023-08-12T10:28:39;24.60;94.00
76967;DHT22;65904;52.278;20.972;2023-08-12T10:31:26;24.60;94.00
76967;DHT22;65904;52.278;20.972;2023-08-12T10:34:21;24.60;94.10
76967;DHT22;65904;52.278;20.972;2023-08-12T10:37:08;24.60;94.20
76967;DHT22;65904;52.278;20.972;2023-08-12T10:39:55;24.60;94.30
76967;DHT22;65904;52.278;20.972;2023-08-12T10:42:42;24.60;94.30
76967;DHT22;65904;52.278;20.972;2023-08-12T10:45:40;24.60;94.30
76967;DHT22;65904;52.278;20.972;2023-08-12T10:48:28;24.60;94.30
76967;DHT22;65904;52.278;20.972;2023-08-12T10:51:15;24.70;94.30
76967;DHT22;65904;52.278;20.972;2023-08-12T10:54:10;24.60;94.70
76967;DHT22;65904;52.278;20.972;2023-08-12T10:57:06;24.70;94.40
76967;DHT22;65904;52.278;20.972;2023-08-12T10:59:54;24.70;94.30
76967;DHT22;65904;52.278;20.972;2023-08-12T11:02:40;24.70;94.30
76967;DHT22;65904;52.278;20.972;2023-08-12T11:05:35;24.70;94.40
76967;DHT22;65904;52.278;20.972;2023-08-12T11:08:27;24.70;94.50
76967;DHT22;65904;52.278;20.972;2023-08-12T11:11:18;24.70;94.50
76967;DHT22;65904;52.278;20.972;2023-08-12T11:14:11;24.70;94.50
76967;DHT22;65904;52.278;20.972;2023-08-12T11:16:57;24.80;94.80
76967;DHT22;65904;52.278;20.972;2023-08-12T11:19:43;24.80;94.40
76967;DHT22;65904;52.278;20.972;2023-08-12T11:22:29;24.80;94.20
76967;DHT22;65904;52.278;20.972;2023-08-12T11:25:17;24.80;94.20
76967;DHT22;65904;52.278;20.972;2023-08-12T11:28:03;24.80;94.10
76967;DHT22;65904;52.278;20.972;2023-08-12T11:30:49;24.80;94.10
76967;DHT22;65904;52.278;20.972;2023-08-12T11:33:36;24.80;94.00
76967;DHT22;65904;52.278;20.972;2023-08-12T11:36:21;24.80;94.00
76967;DHT22;65904;52.278;20.972;2023-08-12T11:39:07;24.90;93.90
76967;DHT22;65904;52.278;20.972;2023-08-12T11:41:55;24.80;93.90
76967;DHT22;65904;52.278;20.972;2023-08-12T11:44:42;24.90;93.90
76967;DHT22;65904;52.278;20.972;2023-08-12T11:47:28;24.90;93.80
76967;DHT22;65904;52.278;20.972;2023-08-12T11:50:14;24.90;93.80
76967;DHT22;65904;52.278;20.972;2023-08-12T11:53:00;24.90;93.80
76967;DHT22;65904;52.278;20.972;2023-08-12T11:55:46;24.90;93.70
76967;DHT22;65904;52.278;20.972;2023-08-12T11:58:36;24.90;93.60
76967;DHT22;65904;52.278;20.972;2023-08-12T12:01:22;25.00;93.60
76967;DHT22;65904;52.278;20.972;2023-08-12T12:04:09;25.00;93.50
76967;DHT22;65904;52.278;20.972;2023-08-12T12:06:55;25.10;93.50
76967;DHT22;65904;52.278;20.972;2023-08-12T12:09:42;25.20;93.40
76967;DHT22;65904;52.278;20.972;2023-08-12T12:12:28;25.30;93.20
76967;DHT22;65904;52.278;20.972;2023-08-12T12:15:16;25.40;93.10
76967;DHT22;65904;52.278;20.972;2023-08-12T12:18:02;25.50;92.90
76967;DHT22;65904;52.278;20.972;2023-08-12T12:20:54;25.60;92.70
76967;DHT22;65904;52.278;20.972;2023-08-12T12:23:41;25.70;92.50
76967;DHT22;65904;52.278;20.972;2023-08-12T12:26:27;25.80;92.30
76967;DHT22;65904;52.278;20.972;2023-08-12T12:29:13;25.90;92.10
76967;DHT22;65904;52.278;20.972;2023-08-12T12:32:00;26.00;91.90
76967;DHT22;65904;52.278;20.972;2023-08-12T12:34:47;26.20;91.80
76967;DHT22;65904;52.278;20.972;2023-08-12T12:37:32;26.30;91.50
76967;DHT22;65904;52.278;20.972;2023-08-12T12:40:19;26.30;91.40
76967;DHT22;65904;52.278;20.972;2023-08-12T12:43:04;26.50;91.20
76967;DHT22;65904;52.278;20.972;2023-08-12T12:45:51;26.50;91.00
76967;DHT22;65904;52.278;20.972;2023-08-12T12:48:38;26.50;91.00
76967;DHT22;65904;52.278;20.972;2023-08-12T12:51:25;26.60;90.90
76967;DHT22;65904;52.278;20.972;2023-08-12T12:54:11;26.60;90.80
76967;DHT22;65904;52.278;20.972;2023-08-12T12:56:57;26.80;90.70
76967;DHT22;65904;52.278;20.972;2023-08-12T12:59:43;26.90;90.50
76967;DHT22;65904;52.278;20.972;2023-08-12T13:02:30;27.00;90.30
76967;DHT22;65904;52.278;20.972;2023-08-12T13:05:17;27.10;90.10
76967;DHT22;65904;52.278;20.972;2023-08-12T13:08:03;27.20;90.30
76967;DHT22;65904;52.278;20.972;2023-08-12T13:10:50;27.30;89.80
76967;DHT22;65904;52.278;20.972;2023-08-12T13:13:36;27.30;89.40
76967;DHT22;65904;52.278;20.972;2023-08-12T13:16:22;27.40;89.30
76967;DHT22;65904;52.278;20.972;2023-08-12T13:19:08;27.40;89.10
76967;DHT22;65904;52.278;20.972;2023-08-12T13:21:55;27.40;89.80
76967;DHT22;65904;52.278;20.972;2023-08-12T13:24:41;27.40;88.90
76967;DHT22;65904;52.278;20.972;2023-08-12T13:27:27;27.40;88.80
76967;DHT22;65904;52.278;20.972;2023-08-12T13:30:13;27.40;88.90
76967;DHT22;65904;52.278;20.972;2023-08-12T13:32:59;27.30;88.90
76967;DHT22;65904;52.278;20.972;2023-08-12T13:35:45;27.30;89.00
76967;DHT22;65904;52.278;20.972;2023-08-12T13:38:32;27.30;89.00
76967;DHT22;65904;52.278;20.972;2023-08-12T13:41:19;27.20;89.00
76967;DHT22;65904;52.278;20.972;2023-08-12T13:44:05;27.20;89.10
76967;DHT22;65904;52.278;20.972;2023-08-12T13:46:51;27.10;89.10
76967;DHT22;65904;52.278;20.972;2023-08-12T13:49:37;27.10;89.10
76967;DHT22;65904;52.278;20.972;2023-08-12T13:52:23;27.00;89.10
76967;DHT22;65904;52.278;20.972;2023-08-12T13:55:10;27.00;89.30
76967;DHT22;65904;52.278;20.972;2023-08-12T13:57:56;26.90;89.40
76967;DHT22;65904;52.278;20.972;2023-08-12T14:00:42;26.90;89.60
76967;DHT22;65904;52.278;20.972;2023-08-12T14:03:28;26.90;89.60
76967;DHT22;65904;52.278;20.972;2023-08-12T14:06:15;26.80;89.70
76967;DHT22;65904;52.278;20.972;2023-08-12T14:09:01;26.80;89.70
76967;DHT22;65904;52.278;20.972;2023-08-12T14:11:48;26.80;89.70
76967;DHT22;65904;52.278;20.972;2023-08-12T14:14:35;26.80;89.70
76967;DHT22;65904;52.278;20.972;2023-08-12T14:17:21;26.80;89.70
76967;DHT22;65904;52.278;20.972;2023-08-12T14:20:08;26.70;89.60
76967;DHT22;65904;52.278;20.972;2023-08-12T14:22:54;26.70;89.60
76967;DHT22;65904;52.278;20.972;2023-08-12T14:25:40;26.70;89.70
76967;DHT22;65904;52.278;20.972;2023-08-12T14:28:27;26.70;89.60
76967;DHT22;65904;52.278;20.972;2023-08-12T14:31:13;26.70;89.80
76967;DHT22;65904;52.278;20.972;2023-08-12T14:33:59;26.70;89.70
76967;DHT22;65904;52.278;20.972;2023-08-12T14:36:46;26.70;89.80
76967;DHT22;65904;52.278;20.972;2023-08-12T14:39:32;26.60;89.70
76967;DHT22;65904;52.278;20.972;2023-08-12T14:42:18;26.60;89.90
76967;DHT22;65904;52.278;20.972;2023-08-12T14:45:06;26.60;89.90
76967;DHT22;65904;52.278;20.972;2023-08-12T14:47:52;26.60;89.80
76967;DHT22;65904;52.278;20.972;2023-08-12T14:50:38;26.60;89.80
76967;DHT22;65904;52.278;20.972;2023-08-12T14:53:24;26.60;89.90
76967;DHT22;65904;52.278;20.972;2023-08-12T14:56:10;26.60;90.00
76967;DHT22;65904;52.278;20.972;2023-08-12T14:58:56;26.60;89.90
76967;DHT22;65904;52.278;20.972;2023-08-12T15:01:43;26.60;90.00
76967;DHT22;65904;52.278;20.972;2023-08-12T15:04:29;26.60;90.00
76967;DHT22;65904;52.278;20.972;2023-08-12T15:07:15;26.60;90.00
76967;DHT22;65904;52.278;20.972;2023-08-12T15:10:03;26.60;90.10
76967;DHT22;65904;52.278;20.972;2023-08-12T15:12:49;26.50;90.10
76967;DHT22;65904;52.278;20.972;2023-08-12T15:15:35;26.50;90.10
76967;DHT22;65904;52.278;20.972;2023-08-12T15:18:22;26.50;90.10
76967;DHT22;65904;52.278;20.972;2023-08-12T15:21:09;26.50;90.20
76967;DHT22;65904;52.278;20.972;2023-08-12T15:23:55;26.50;90.20
76967;DHT22;65904;52.278;20.972;2023-08-12T15:26:41;26.50;90.20
76967;DHT22;65904;52.278;20.972;2023-08-12T15:29:27;26.50;90.30
76967;DHT22;65904;52.278;20.972;2023-08-12T15:32:14;26.50;90.30
76967;DHT22;65904;52.278;20.972;2023-08-12T15:35:01;27.00;89.80
76967;DHT22;65904;52.278;20.972;2023-08-12T15:37:48;28.00;86.70
76967;DHT22;65904;52.278;20.972;2023-08-12T15:40:36;28.50;84.90
76967;DHT22;65904;52.278;20.972;2023-08-12T15:43:22;28.60;84.10
76967;DHT22;65904;52.278;20.972;2023-08-12T15:46:08;28.50;84.70
76967;DHT22;65904;52.278;20.972;2023-08-12T15:48:54;28.40;84.90
76967;DHT22;65904;52.278;20.972;2023-08-12T15:51:41;28.30;85.20
76967;DHT22;65904;52.278;20.972;2023-08-12T15:54:28;28.20;85.20
76967;DHT22;65904;52.278;20.972;2023-08-12T15:57:13;28.10;85.40
76967;DHT22;65904;52.278;20.972;2023-08-12T16:00:00;28.10;85.60
76967;DHT22;65904;52.278;20.972;2023-08-12T16:02:49;27.80;85.90
76967;DHT22;65904;52.278;20.972;2023-08-12T16:05:35;27.60;86.60
76967;DHT22;65904;52.278;20.972;2023-08-12T16:08:23;27.50;87.30
76967;DHT22;65904;52.278;20.972;2023-08-12T16:11:09;27.60;84.70
76967;DHT22;65904;52.278;20.972;2023-08-12T16:13:54;27.50;87.40
76967;DHT22;65904;52.278;20.972;2023-08-12T16:16:49;27.20;87.90
76967;DHT22;65904;52.278;20.972;2023-08-12T16:19:35;27.00;88.40
76967;DHT22;65904;52.278;20.972;2023-08-12T16:22:21;26.80;88.50
76967;DHT22;65904;52.278;20.972;2023-08-12T16:25:09;26.70;88.70
76967;DHT22;65904;52.278;20.972;2023-08-12T16:27:55;26.60;88.70
76967;DHT22;65904;52.278;20.972;2023-08-12T16:30:41;26.60;88.70
76967;DHT22;65904;52.278;20.972;2023-08-12T16:33:27;26.50;88.80
76967;DHT22;65904;52.278;20.972;2023-08-12T16:36:13;26.50;88.90
76967;DHT22;65904;52.278;20.972;2023-08-12T16:38:59;26.40;88.80
76967;DHT22;65904;52.278;20.972;2023-08-12T16:41:46;26.40;89.00
76967;DHT22;65904;52.278;20.972;2023-08-12T16:44:32;26.30;89.10
76967;DHT22;65904;52.278;20.972;2023-08-12T16:47:18;26.20;89.30
76967;DHT22;65904;52.278;20.972;2023-08-12T16:50:05;26.10;89.40
76967;DHT22;65904;52.278;20.972;2023-08-12T16:52:51;26.10;89.60
76967;DHT22;65904;52.278;20.972;2023-08-12T16:55:37;26.10;89.80
76967;DHT22;65904;52.278;20.972;2023-08-12T16:58:24;26.00;90.00
76967;DHT22;65904;52.278;20.972;2023-08-12T17:01:10;26.00;90.10
76967;DHT22;65904;52.278;20.972;2023-08-12T17:03:56;25.90;90.20
76967;DHT22;65904;52.278;20.972;2023-08-12T17:06:44;25.90;90.20
76967;DHT22;65904;52.278;20.972;2023-08-12T17:09:30;25.90;90.30
76967;DHT22;65904;52.278;20.972;2023-08-12T17:12:18;25.90;90.40
76967;DHT22;65904;52.278;20.972;2023-08-12T17:15:06;25.90;90.50